Time;durP1;ratioP1;P1;durP2;ratioP2;P2;SDS_P1;SDS_P2;PMS_P1;PMS_P2;Temp;Humidity;BMP_temperature;BMP_pressure;BME280_temperature;BME280_humidity;BME280_pressure;Samples;Min_cycle;Max_cycle;Signal;HPM_P1;HPM_P2
2022/04/26 03:36:13;;;;;;;78.57;27.67;;;;;;;33.20;36.21;98113.09;4922829;29;20079;-64
2022/04/26 03:38:54;;;;;;;68.65;25.08;;;;;;;33.41;39.21;98101.41;4925559;29;20075;-64
2022/04/26 03:41:44;;;;;;;63.15;26.52;;;;;;;32.98;38.17;98107.06;4936335;29;20106;-65
2022/04/26 03:44:32;;;;;;;68.53;21.95;;;;;;;33.09;35.60;98103.00;4926322;29;20114;-64
2022/04/26 03:47:14;;;;;;;50.55;20.15;;;;;;;33.30;36.22;98110.00;4925264;29;20044;-64
2022/04/26 03:50:03;;;;;;;40.53;17.50;;;;;;;33.67;32.93;98122.78;4927418;29;20142;-62
2022/04/26 03:52:53;;;;;;;45.67;16.48;;;;;;;33.91;34.82;98123.19;4922604;29;20051;-65
2022/04/26 03:55:35;;;;;;;52.20;17.40;;;;;;;34.10;36.16;98117.78;4936043;29;20062;-63
2022/04/26 03:58:25;;;;;;;49.72;18.70;;;;;;;34.05;34.63;98119.47;4932340;29;20059;-63
2022/04/26 04:01:06;;;;;;;70.80;22.80;;;;;;;34.27;38.05;98117.38;4933852;29;20487;-63
2022/04/26 04:03:56;;;;;;;64.80;27.65;;;;;;;34.14;33.76;98118.22;4936450;29;20059;-64
2022/04/26 04:06:44;;;;;;;74.85;29.52;;;;;;;34.23;35.50;98122.31;4933276;29;20633;-63
2022/04/26 04:09:34;;;;;;;64.30;26.35;;;;;;;34.43;32.79;98123.06;4930164;29;20094;-63
2022/04/26 04:12:23;;;;;;;56.92;24.90;;;;;;;34.60;32.73;98122.59;4926394;29;20144;-63
2022/04/26 04:15:05;;;;;;;77.95;29.40;;;;;;;34.49;35.99;98121.41;4928118;29;20044;-63
2022/04/26 04:18:00;;;;;;;90.03;33.40;;;;;;;34.99;36.20;98130.44;4934830;28;20043;-63
2022/04/26 04:20:36;;;;;;;69.57;31.13;;;;;;;35.16;35.54;98128.91;4948161;28;20134;-63
2022/04/26 04:23:32;;;;;;;89.70;36.10;;;;;;;35.20;37.25;98126.63;4967105;28;20043;-63
2022/04/26 04:26:08;;;;;;;73.45;37.25;;;;;;;35.41;37.10;98122.78;4909040;29;20484;-64
2022/04/26 04:29:03;;;;;;;84.23;36.60;;;;;;;35.32;33.94;98124.09;4952162;29;20049;-63
2022/04/26 04:31:39;;;;;;;68.20;33.30;;;;;;;35.52;36.33;98130.91;4950477;29;20122;-62
2022/04/26 04:34:34;;;;;;;70.57;31.80;;;;;;;35.47;33.31;98140.66;4933712;29;20436;-62
2022/04/26 04:37:09;;;;;;;78.38;31.58;;;;;;;35.51;33.13;98134.66;4948358;29;20047;-65
2022/04/26 04:40:05;;;;;;;74.90;31.05;;;;;;;35.57;34.67;98147.19;4949019;29;20110;-63
2022/04/26 04:42:40;;;;;;;72.57;29.30;;;;;;;35.79;36.40;98139.59;4949687;29;20102;-63
2022/04/26 04:45:29;;;;;;;60.40;27.35;;;;;;;36.04;34.98;98144.94;4945410;28;20062;-63
2022/04/26 04:48:12;;;;;;;50.50;25.02;;;;;;;36.52;35.54;98150.41;4948502;29;20039;-62
2022/04/26 04:51:07;;;;;;;63.83;27.27;;;;;;;36.43;37.59;98149.91;4948253;28;20367;-63
2022/04/26 04:53:44;;;;;;;54.92;22.00;;;;;;;36.26;36.19;98150.72;4947572;28;20039;-63
2022/04/26 04:56:33;;;;;;;53.83;20.70;;;;;;;36.71;33.81;98156.63;4949898;29;20102;-63
2022/04/26 04:59:16;;;;;;;43.38;17.92;;;;;;;36.13;30.03;98158.88;4949197;29;20065;-63
2022/04/26 05:02:05;;;;;;;42.85;16.45;;;;;;;36.32;31.96;98150.63;4948900;28;20114;-62
2022/04/26 05:04:48;;;;;;;48.17;16.95;;;;;;;36.86;37.54;98150.84;4949101;28;20051;-63
2022/04/26 05:07:37;;;;;;;57.40;18.65;;;;;;;37.00;33.60;98155.81;4949911;29;20047;-63
2022/04/26 05:10:26;;;;;;;59.20;19.10;;;;;;;36.95;35.25;98147.63;4943294;29;20110;-62
2022/04/26 05:13:08;;;;;;;39.87;16.63;;;;;;;37.40;30.73;98161.47;4944585;29;20051;-63
2022/04/26 05:15:57;;;;;;;45.67;15.80;;;;;;;37.02;28.41;98155.59;4941477;29;20062;-64
2022/04/26 05:18:39;;;;;;;43.53;16.00;;;;;;;36.99;30.45;98158.72;4948179;28;20641;-64
2022/04/26 05:21:28;;;;;;;45.92;16.35;;;;;;;37.21;34.20;98157.19;4924100;29;21352;-63
2022/04/26 05:27:17;;;;;;;39.17;15.50;;;;;;;37.14;31.87;98157.28;4946929;29;20416;-63
2022/04/26 05:30:07;;;;;;;31.70;15.60;;;;;;;37.31;37.46;98152.09;4935957;28;20052;-63
2022/04/26 05:32:49;;;;;;;43.55;14.85;;;;;;;37.47;31.94;98154.09;4948042;28;20146;-65
2022/04/26 05:35:45;;;;;;;31.88;13.13;;;;;;;37.51;35.06;98152.63;4948435;29;20355;-65
2022/04/26 05:38:20;;;;;;;28.08;13.35;;;;;;;37.59;35.81;98145.25;4966817;28;20522;-66
2022/04/26 05:41:15;;;;;;;45.35;12.25;;;;;;;37.74;35.02;98145.66;4969843;28;20050;-65
2022/04/26 05:43:50;;;;;;;30.05;12.30;;;;;;;37.80;32.83;98147.41;4969918;28;20049;-65
2022/04/26 05:46:38;;;;;;;29.95;10.45;;;;;;;37.38;27.18;98152.81;4953923;28;20047;-66
2022/04/26 05:49:21;;;;;;;28.20;9.50;;;;;;;37.52;27.46;98148.84;4950780;29;20055;-65
2022/04/26 05:52:09;;;;;;;28.13;9.73;;;;;;;37.82;29.03;98151.50;4948417;28;20051;-65
2022/04/26 05:55:00;;;;;;;39.83;11.10;;;;;;;37.84;34.96;98143.16;4948796;29;20058;-64
2022/04/26 05:57:42;;;;;;;20.92;7.28;;;;;;;37.78;29.70;98144.13;4949761;29;20699;-66
2022/04/26 06:00:32;;;;;;;24.33;7.45;;;;;;;37.90;31.24;98144.94;4948522;29;20131;-64
2022/04/26 06:03:14;;;;;;;24.13;6.63;;;;;;;37.73;27.95;98138.63;4921536;29;20062;-65
2022/04/26 06:06:03;;;;;;;23.02;5.90;;;;;;;37.50;27.84;98144.78;4939500;29;20114;-65
2022/04/26 06:08:45;;;;;;;16.77;5.78;;;;;;;37.59;35.12;98134.50;4946495;29;20545;-66
2022/04/26 06:11:34;;;;;;;13.18;6.65;;;;;;;37.58;29.49;98132.84;4940360;29;20057;-65
2022/04/26 06:14:16;;;;;;;15.75;6.35;;;;;;;37.65;27.21;98138.97;4946875;29;20130;-64
2022/04/26 06:17:05;;;;;;;16.48;6.20;;;;;;;37.63;33.49;98135.69;4941322;29;20059;-65
2022/04/26 06:19:47;;;;;;;14.27;5.38;;;;;;;37.40;27.67;98141.81;4943255;29;20055;-65
2022/04/26 06:22:36;;;;;;;17.42;5.75;;;;;;;37.50;35.44;98120.56;4946762;29;20047;-65
2022/04/26 06:25:18;;;;;;;20.67;5.10;;;;;;;37.45;28.83;98125.81;4939761;29;20047;-65
2022/04/26 06:28:09;;;;;;;20.17;5.55;;;;;;;37.45;30.50;98121.25;4944506;28;20289;-64
2022/04/26 06:30:50;;;;;;;21.85;5.75;;;;;;;37.39;31.51;98122.19;4942878;29;20138;-66
2022/04/26 06:33:40;;;;;;;15.25;5.22;;;;;;;37.20;29.19;98122.50;4943432;29;20050;-64
2022/04/26 06:36:21;;;;;;;17.00;5.15;;;;;;;37.28;29.07;98124.88;4933514;29;20066;-66
2022/04/26 06:46:16;;;;;;;20.15;5.03;;;;;;;37.32;28.38;98102.66;4854552;29;20429;-65
2022/04/26 06:48:52;;;;;;;24.55;6.97;;;;;;;37.27;27.14;98107.91;4854667;29;20133;-63
2022/04/26 06:51:43;;;;;;;20.70;4.78;;;;;;;37.32;26.35;98113.41;4855221;29;20060;-62
2022/04/26 06:54:25;;;;;;;14.10;5.55;;;;;;;37.49;28.35;98111.69;4854507;29;20056;-64
2022/04/26 06:57:16;;;;;;;18.35;5.40;;;;;;;37.38;27.76;98109.78;4854030;29;20045;-64
2022/04/26 06:59:58;;;;;;;15.90;4.18;;;;;;;37.17;26.67;98104.97;4853957;29;20050;-65
2022/04/26 07:02:47;;;;;;;13.45;3.55;;;;;;;37.16;24.61;98103.31;4850532;29;20607;-64
2022/04/26 07:05:37;;;;;;;17.02;4.35;;;;;;;36.68;23.38;98101.50;4852243;29;20045;-65
2022/04/26 07:08:18;;;;;;;21.55;4.55;;;;;;;37.13;26.06;98088.47;4855066;29;20501;-64
2022/04/26 07:11:08;;;;;;;16.85;3.97;;;;;;;37.15;27.15;98089.06;4841023;29;20098;-64
2022/04/26 07:13:52;;;;;;;20.48;5.55;;;;;;;37.25;27.78;98075.06;4848312;29;20064;-66
2022/04/26 07:16:41;;;;;;;17.40;5.20;;;;;;;37.42;28.90;98078.72;4848120;29;20051;-64
2022/04/26 07:19:23;;;;;;;16.40;4.00;;;;;;;37.38;27.44;98080.22;4851349;29;20489;-64
2022/04/26 07:22:12;;;;;;;16.08;4.85;;;;;;;37.46;32.24;98071.81;4847255;29;20140;-64
2022/04/26 07:24:54;;;;;;;18.80;4.72;;;;;;;37.47;26.88;98067.25;4844599;29;20117;-65
2022/04/26 07:27:43;;;;;;;16.52;4.40;;;;;;;37.66;29.70;98065.31;4847391;29;20121;-68
2022/04/26 07:30:34;;;;;;;12.70;4.00;;;;;;;37.35;25.60;98061.06;4849368;29;20054;-65
2022/04/26 07:36:22;;;;;;;14.93;4.03;;;;;;;37.29;29.87;98043.97;4841633;29;20068;-64
2022/04/26 07:39:11;;;;;;;11.68;3.90;;;;;;;37.35;25.44;98053.00;4848330;29;20042;-64
2022/04/26 07:41:53;;;;;;;11.82;3.50;;;;;;;37.17;30.09;98046.66;4849900;29;20411;-65
2022/04/26 07:44:48;;;;;;;19.02;4.15;;;;;;;36.77;22.83;98057.19;4827928;29;20513;-65
2022/04/26 07:47:26;;;;;;;19.75;4.13;;;;;;;37.06;27.01;98038.53;4863933;29;20068;-63
2022/04/26 07:50:15;;;;;;;20.65;5.20;;;;;;;37.15;26.60;98045.25;4869013;29;20049;-64
2022/04/26 07:53:06;;;;;;;24.38;5.63;;;;;;;37.13;26.88;98041.97;4869123;29;20116;-65
2022/04/26 07:55:47;;;;;;;;;;;;;;;36.85;23.02;98031.03;4870374;29;20060;-64
2022/04/26 07:58:36;;;;;;;14.35;4.40;;;;;;;36.97;25.26;98026.50;4871047;29;19927;-65
2022/04/26 08:01:26;;;;;;;13.75;3.95;;;;;;;37.02;27.73;98027.47;4871099;29;20076;-65
2022/04/26 08:04:15;;;;;;;15.18;4.63;;;;;;;37.03;26.40;98014.84;4869467;29;20052;-63
2022/04/26 08:07:11;;;;;;;16.65;4.78;;;;;;;36.91;25.97;98014.00;4869481;29;20049;-63
2022/04/26 08:09:46;;;;;;;15.77;3.72;;;;;;;36.84;29.11;98007.91;4871907;29;20041;-63
2022/04/26 08:12:35;;;;;;;11.00;3.88;;;;;;;36.82;28.52;98010.81;4872393;29;20105;-62
2022/04/26 08:15:18;;;;;;;13.90;4.30;;;;;;;36.83;28.68;98004.41;4872217;29;20417;-63
2022/04/26 08:18:07;;;;;;;13.00;4.60;;;;;;;36.90;25.98;98001.59;4871457;29;20143;-64
2022/04/26 08:20:56;;;;;;;16.33;3.83;;;;;;;36.85;24.01;98009.53;4867119;29;20064;-64
2022/04/26 08:29:46;;;;;;;13.50;4.47;;;;;;;36.68;24.10;97996.78;4867589;29;20049;-64
2022/04/26 08:32:47;;;;;;;11.35;4.00;;;;;;;36.65;23.62;97989.13;4866896;29;20057;-63
2022/04/26 08:35:29;;;;;;;21.00;4.30;;;;;;;36.60;23.32;97986.34;4868406;29;20500;-62
2022/04/26 08:38:39;;;;;;;15.55;4.50;;;;;;;36.56;23.62;97979.78;4870050;29;20056;-62
2022/04/26 08:41:22;;;;;;;21.42;5.32;;;;;;;36.52;23.55;97977.78;4870968;29;20049;-64
2022/04/26 08:44:18;;;;;;;12.98;4.07;;;;;;;36.45;23.63;97971.69;4864197;29;20077;-64
2022/04/26 08:53:19;;;;;;;19.80;3.95;;;;;;;36.42;24.75;97956.84;4852553;29;20049;-63
2022/04/26 08:56:12;;;;;;;12.55;4.03;;;;;;;36.36;26.05;97955.09;4851680;29;20053;-64
2022/04/26 08:58:54;;;;;;;13.20;4.13;;;;;;;36.43;27.19;97945.91;4853959;29;20153;-64
2022/04/26 09:01:44;;;;;;;20.48;5.40;;;;;;;36.38;25.87;97950.31;4851916;29;20057;-64
2022/04/26 09:04:25;;;;;;;19.87;4.63;;;;;;;36.41;25.15;97942.63;4852419;29;20054;-64
2022/04/26 09:07:33;;;;;;;15.32;4.25;;;;;;;36.36;27.59;97933.63;4853984;29;20304;-66
2022/04/26 09:10:18;;;;;;;13.30;5.13;;;;;;;36.40;23.50;97935.63;4855208;29;20042;-64
2022/04/26 09:13:15;;;;;;;17.33;4.15;;;;;;;36.36;27.39;97930.94;4854280;29;20041;-63
2022/04/26 09:15:57;;;;;;;19.00;3.85;;;;;;;36.25;25.50;97923.66;4855146;29;20046;-64
2022/04/26 09:18:46;;;;;;;13.23;3.60;;;;;;;36.29;27.35;97914.13;4855076;29;20053;-64
2022/04/26 09:21:29;;;;;;;15.17;4.03;;;;;;;36.26;25.40;97920.75;4854855;29;20071;-64
2022/04/26 09:24:18;;;;;;;13.38;4.38;;;;;;;36.18;27.03;97912.19;4853910;29;20061;-65
2022/04/26 09:27:15;;;;;;;15.13;4.13;;;;;;;36.11;25.35;97906.09;4854973;29;20060;-64
2022/04/26 09:30:04;;;;;;;11.13;3.92;;;;;;;36.01;26.34;97912.00;4853951;29;20133;-63
2022/04/26 09:32:48;;;;;;;18.50;4.13;;;;;;;35.96;25.83;97895.78;4853573;29;20061;-64
2022/04/26 09:35:37;;;;;;;10.35;4.00;;;;;;;35.91;26.61;97896.47;4853265;29;20482;-64
2022/04/26 09:38:26;;;;;;;15.43;3.95;;;;;;;35.81;26.84;97898.03;4855973;29;20084;-64
2022/04/26 09:41:10;;;;;;;18.50;4.03;;;;;;;35.81;26.11;97893.50;4855230;29;20084;-63
2022/04/26 09:44:05;;;;;;;15.88;4.45;;;;;;;35.73;25.91;97888.47;4838170;29;20049;-65
2022/04/26 09:46:56;;;;;;;20.85;4.20;;;;;;;36.00;23.20;97889.72;4839350;29;20056;-63
2022/04/26 09:49:44;;;;;;;12.77;4.50;;;;;;;36.00;24.63;97881.69;4854709;29;20065;-64
2022/04/26 09:52:35;;;;;;;10.85;4.30;;;;;;;36.14;24.69;97884.19;4853787;29;20125;-64
2022/04/26 09:55:24;;;;;;;15.88;4.65;;;;;;;36.02;24.13;97876.09;4853271;29;20064;-63
2022/04/26 09:58:07;;;;;;;15.48;4.65;;;;;;;35.91;26.31;97872.34;4853916;29;20452;-64
2022/04/26 10:00:58;;;;;;;23.42;5.72;;;;;;;35.87;26.07;97871.13;4853089;29;20068;-62
2022/04/26 10:03:52;;;;;;;13.15;5.00;;;;;;;35.85;26.52;97867.03;4837724;29;20529;-62
2022/04/26 10:06:43;;;;;;;20.83;4.38;;;;;;;35.73;27.28;97853.59;4852553;29;21314;-63
2022/04/26 10:09:26;;;;;;;13.15;4.15;;;;;;;35.65;27.01;97859.25;4854677;29;20136;-63
2022/04/26 10:12:16;;;;;;;20.35;4.60;;;;;;;35.59;25.67;97855.63;4851319;29;20053;-64
2022/04/26 10:14:58;;;;;;;42.58;6.57;;;;;;;35.70;25.32;97854.00;4853308;29;20049;-63
2022/04/26 10:17:49;;;;;;;21.38;5.97;;;;;;;35.71;26.21;97850.31;4852252;29;20077;-63
2022/04/26 10:20:47;;;;;;;19.38;4.97;;;;;;;35.79;24.52;97850.00;4837719;29;20061;-64
2022/04/26 10:23:51;;;;;;;14.85;4.28;;;;;;;35.73;23.15;97837.50;4825779;29;20121;-63
2022/04/26 10:26:33;;;;;;;18.95;5.53;;;;;;;35.62;24.78;97832.88;4853512;29;20473;-62
2022/04/26 10:29:24;;;;;;;13.50;4.07;;;;;;;35.54;26.59;97831.31;4848317;29;20473;-63
2022/04/26 10:32:10;;;;;;;15.52;4.25;;;;;;;35.51;27.02;97817.56;4853198;29;20140;-64
2022/04/26 10:35:26;;;;;;;16.42;4.38;;;;;;;35.44;25.71;97820.31;4838893;29;20112;-64
2022/04/26 10:38:20;;;;;;;14.48;5.10;;;;;;;35.44;26.74;97814.16;4853381;29;20556;-64
2022/04/26 10:41:11;;;;;;;12.55;4.40;;;;;;;35.36;28.71;97812.59;4852763;29;20081;-64
2022/04/26 10:44:26;;;;;;;12.73;4.70;;;;;;;35.41;25.81;97814.59;4854298;29;20069;-63
2022/04/26 10:47:19;;;;;;;16.33;4.38;;;;;;;35.39;26.97;97814.00;4852163;29;20053;-63
2022/04/26 10:50:13;;;;;;;13.60;5.73;;;;;;;35.46;24.81;97812.06;4515807;29;10000344;-62
2022/04/26 10:53:02;;;;;;;19.77;4.68;;;;;;;35.46;25.00;97806.69;4851185;29;20092;-63
2022/04/26 10:55:44;;;;;;;19.65;5.47;;;;;;;35.47;23.06;97813.69;4841618;29;20062;-65
2022/04/26 10:58:59;;;;;;;14.00;3.78;;;;;;;35.42;25.62;97805.53;4850247;29;20331;-64
2022/04/26 11:01:34;;;;;;;12.73;4.28;;;;;;;35.25;26.50;97806.16;4838741;29;20057;-62
2022/04/26 11:04:22;;;;;;;10.48;4.15;;;;;;;35.09;26.61;97797.88;4850659;29;20065;-61
2022/04/26 11:07:25;;;;;;;16.05;4.68;;;;;;;35.04;25.38;97803.88;4850472;29;20041;-62
2022/04/26 11:10:16;;;;;;;14.30;4.47;;;;;;;34.97;27.47;97805.81;4853035;29;20754;-62
2022/04/26 11:13:05;;;;;;;16.70;5.57;;;;;;;34.91;27.74;97801.34;4850092;29;20052;-62
2022/04/26 11:15:46;;;;;;;13.65;5.00;;;;;;;34.83;27.80;97798.97;4851412;29;20046;-61
2022/04/26 11:18:42;;;;;;;19.50;6.10;;;;;;;34.73;30.18;97804.00;4847847;29;20067;-62
2022/04/26 11:21:25;;;;;;;17.23;5.07;;;;;;;34.66;28.64;97801.38;4850071;29;20061;-62
2022/04/26 11:30:43;;;;;;;15.53;5.70;;;;;;;34.28;32.09;97804.19;4849498;29;20045;-61
2022/04/26 11:33:27;;;;;;;13.48;5.45;;;;;;;34.46;27.14;97808.78;4826358;29;20061;-65
2022/04/26 11:36:17;;;;;;;15.77;6.43;;;;;;;34.43;27.50;97802.00;4849546;29;20117;-65
2022/04/26 11:38:59;;;;;;;17.77;6.50;;;;;;;34.39;28.59;97800.81;4849407;29;20050;-63
2022/04/26 11:41:48;;;;;;;13.60;6.03;;;;;;;34.34;29.43;97797.13;4848964;29;20073;-63
2022/04/26 11:44:30;;;;;;;16.95;6.43;;;;;;;34.50;24.93;97800.06;4832160;29;20531;-61
2022/04/26 11:47:19;;;;;;;15.57;7.00;;;;;;;34.43;27.93;97796.66;4851762;29;20073;-63
2022/04/26 11:50:17;;;;;;;15.95;7.00;;;;;;;34.30;28.10;97801.28;4867179;29;20361;-62
2022/04/26 11:53:14;;;;;;;21.08;6.72;;;;;;;34.25;27.29;97793.09;4868098;29;20148;-62
2022/04/26 11:56:05;;;;;;;17.52;6.55;;;;;;;34.12;29.62;97792.13;4867365;29;20053;-62
2022/04/26 11:58:54;;;;;;;16.98;6.00;;;;;;;34.04;29.01;97794.25;4870531;29;20134;-63
2022/04/26 12:01:51;;;;;;;13.45;6.20;;;;;;;33.94;30.37;97796.59;4870145;29;20052;-63
2022/04/26 12:04:35;;;;;;;16.20;5.88;;;;;;;33.87;28.43;97793.97;4871176;29;20494;-63
2022/04/26 12:07:31;;;;;;;20.17;5.82;;;;;;;33.82;29.38;97799.16;4871073;29;20061;-62
2022/04/26 12:10:32;;;;;;;13.68;5.63;;;;;;;33.73;31.28;97800.44;4866583;29;20148;-63
2022/04/26 12:13:32;;;;;;;15.57;6.35;;;;;;;33.61;30.99;97800.25;4869929;29;20060;-63
2022/04/26 12:16:25;;;;;;;24.83;6.85;;;;;;;33.50;30.48;97811.63;4864443;29;20124;-62
2022/04/26 12:19:15;;;;;;;24.05;6.75;;;;;;;33.40;29.97;97805.91;4867692;29;20068;-63
2022/04/26 12:22:06;;;;;;;23.52;6.93;;;;;;;33.38;29.44;97818.66;4857636;29;20051;-61
2022/04/26 12:24:54;;;;;;;19.08;6.97;;;;;;;33.29;31.48;97814.56;4866777;29;20073;-62
2022/04/26 12:27:43;;;;;;;24.75;8.30;;;;;;;33.22;29.12;97809.25;4864917;29;20072;-64
2022/04/26 12:30:29;;;;;;;20.15;6.53;;;;;;;33.25;27.97;97818.72;4869486;29;20144;-63
2022/04/26 12:33:18;;;;;;;19.50;6.03;;;;;;;33.30;26.73;97814.38;4867025;29;20579;-63
2022/04/26 12:36:07;;;;;;;20.95;6.43;;;;;;;33.28;26.83;97813.78;4870313;29;20053;-63
2022/04/26 12:38:56;;;;;;;17.70;6.13;;;;;;;33.28;28.02;97813.78;4866147;29;20053;-63
2022/04/26 12:41:52;;;;;;;17.58;7.80;;;;;;;33.21;30.05;97812.97;4870738;29;20057;-65
2022/04/26 12:44:41;;;;;;;;;;;;;;;33.19;28.42;97809.69;4536020;29;10000344;-65
2022/04/26 12:50:35;;;;;;;16.63;6.07;;;;;;;32.96;32.14;97818.16;4855649;29;20079;-62
2022/04/26 12:53:28;;;;;;;21.00;7.38;;;;;;;32.86;29.90;97822.28;4855793;29;20438;-62
2022/04/26 12:56:20;;;;;;;17.10;6.28;;;;;;;32.78;29.64;97823.34;4856365;29;20056;-62
2022/04/26 12:59:02;;;;;;;14.43;5.85;;;;;;;32.69;30.36;97819.25;4868302;29;20770;-62
2022/04/26 13:01:51;;;;;;;18.33;6.10;;;;;;;32.60;32.96;97817.78;4855830;29;20058;-63
2022/04/26 13:04:32;;;;;;;20.23;6.40;;;;;;;32.51;32.31;97819.00;4841336;29;20061;-63
2022/04/26 13:07:23;;;;;;;15.00;6.25;;;;;;;32.40;34.47;97819.66;4854558;29;20137;-62
2022/04/26 13:10:13;;;;;;;20.38;8.10;;;;;;;32.25;31.93;97825.97;4853453;29;21392;-64
2022/04/26 13:13:02;;;;;;;17.85;6.30;;;;;;;32.15;31.31;97830.06;4852954;29;20049;-63
2022/04/26 13:15:44;;;;;;;21.65;7.28;;;;;;;32.04;36.49;97828.81;4853404;29;20469;-62
2022/04/26 13:18:33;;;;;;;24.30;7.43;;;;;;;31.92;37.02;97833.13;4855047;29;20061;-62
2022/04/26 13:21:15;;;;;;;20.27;7.90;;;;;;;31.76;35.70;97833.50;4854820;29;20045;-63
2022/04/26 13:24:04;;;;;;;17.08;7.38;;;;;;;31.65;38.00;97842.88;4853887;29;20057;-62
2022/04/26 13:26:46;;;;;;;32.92;7.97;;;;;;;31.49;40.02;97837.88;4854786;29;20064;-62
2022/04/26 13:29:35;;;;;;;24.50;8.60;;;;;;;31.40;40.25;97842.53;4855003;29;20065;-63
2022/04/26 13:32:19;;;;;;;24.75;8.20;;;;;;;31.27;37.61;97834.50;4855214;29;20053;-63
2022/04/26 13:35:08;;;;;;;29.23;8.55;;;;;;;31.14;41.71;97834.41;4855298;29;20144;-63
2022/04/26 13:37:52;;;;;;;38.10;8.75;;;;;;;31.04;40.55;97834.78;4854173;29;20073;-63
2022/04/26 13:40:41;;;;;;;31.73;8.73;;;;;;;30.92;40.05;97835.50;4854487;29;20060;-61
2022/04/26 13:43:24;;;;;;;26.85;8.52;;;;;;;30.83;44.69;97836.66;4854777;29;20164;-63
2022/04/26 13:46:36;;;;;;;35.55;9.15;;;;;;;30.71;45.74;97833.75;4858790;29;20109;-62
2022/04/26 13:49:11;;;;;;;30.88;9.77;;;;;;;30.62;48.07;97841.03;4855813;29;20382;-63
2022/04/26 13:52:00;;;;;;;24.00;8.80;;;;;;;30.49;46.31;97834.78;4854909;29;20057;-63
2022/04/26 13:54:49;;;;;;;26.27;8.93;;;;;;;30.39;44.38;97843.91;4855486;29;20045;-62
2022/04/26 13:57:30;;;;;;;31.30;9.35;;;;;;;30.29;46.03;97840.75;4855922;29;20049;-62
2022/04/26 14:00:23;;;;;;;23.27;9.77;;;;;;;30.21;49.35;97848.84;4855935;29;20113;-62
2022/04/26 14:03:06;;;;;;;22.65;9.50;;;;;;;30.10;50.54;97843.19;4856008;29;20637;-62
2022/04/26 14:05:55;;;;;;;33.08;10.05;;;;;;;30.03;51.09;97851.13;4855946;29;20057;-63
2022/04/26 14:08:37;;;;;;;20.67;8.43;;;;;;;29.94;51.62;97847.75;4855643;29;20064;-62
2022/04/26 14:11:26;;;;;;;28.73;9.25;;;;;;;29.87;51.11;97852.16;4854425;29;20056;-64
2022/04/26 14:23:29;;;;;;;24.98;10.65;;;;;;;29.55;52.87;97855.25;4853004;29;20828;-65
2022/04/26 14:26:13;;;;;;;33.90;10.40;;;;;;;29.52;53.88;97853.00;4852601;29;20061;-65
2022/04/26 14:29:03;;;;;;;24.77;9.50;;;;;;;29.48;54.68;97863.13;4850376;29;20109;-64
2022/04/26 14:31:45;;;;;;;33.67;10.90;;;;;;;29.43;54.15;97859.41;4852173;29;20053;-64
2022/04/26 14:34:36;;;;;;;22.55;9.98;;;;;;;29.37;53.96;97863.63;4853627;29;20053;-65
2022/04/26 14:37:19;;;;;;;32.95;10.15;;;;;;;29.30;54.68;97867.97;4853563;29;20117;-64
2022/04/26 14:40:09;;;;;;;38.53;11.02;;;;;;;29.28;56.67;97873.50;4853004;29;20045;-64
2022/04/26 14:42:51;;;;;;;27.85;10.70;;;;;;;29.24;58.03;97866.88;4853755;29;20156;-64
2022/04/26 14:45:44;;;;;;;24.88;10.10;;;;;;;29.15;54.85;97867.97;4854434;29;20815;-64
2022/04/26 14:48:33;;;;;;;23.40;11.27;;;;;;;29.18;57.58;97867.63;4858279;29;20137;-66
2022/04/26 14:51:16;;;;;;;24.27;10.68;;;;;;;29.14;58.33;97876.94;4853994;29;20140;-63
2022/04/26 14:54:04;;;;;;;25.98;10.60;;;;;;;29.06;56.85;97874.38;4852903;29;20057;-64
2022/04/26 14:56:54;;;;;;;28.42;11.63;;;;;;;29.04;57.43;97876.41;4851346;29;20382;-65
2022/04/26 14:59:45;;;;;;;40.22;11.15;;;;;;;28.92;52.63;97889.28;4852839;29;20053;-65
2022/04/26 15:02:41;;;;;;;27.90;11.00;;;;;;;28.96;54.76;97891.59;4851485;29;20049;-65
2022/04/26 15:05:30;;;;;;;33.78;12.85;;;;;;;28.99;55.77;97894.69;4845398;29;20057;-65
2022/04/26 15:11:19;;;;;;;36.85;13.93;;;;;;;28.99;55.71;97894.69;4851275;29;20784;-64
2022/04/26 15:17:07;;;;;;;39.70;13.90;;;;;;;28.89;54.68;97894.16;4851999;29;20121;-65
2022/04/26 15:19:50;;;;;;;44.55;15.82;;;;;;;28.89;54.56;97896.81;4851593;29;20061;-65
2022/04/26 15:22:39;;;;;;;38.38;14.63;;;;;;;28.85;53.77;97904.28;4851903;29;20193;-64
2022/04/26 15:25:21;;;;;;;40.63;16.08;;;;;;;28.81;54.01;97910.13;4850951;29;20113;-65
2022/04/26 15:28:11;;;;;;;55.88;15.48;;;;;;;28.79;54.50;97906.84;4850983;29;20586;-64
2022/04/26 15:30:53;;;;;;;46.45;15.55;;;;;;;28.70;52.49;97913.19;4852702;29;20057;-66
2022/04/26 15:33:50;;;;;;;56.45;16.33;;;;;;;28.64;53.88;97916.56;4515376;29;10001120;-64
2022/04/26 15:36:25;;;;;;;45.40;16.67;;;;;;;28.59;53.34;97914.41;4853284;29;20073;-64
2022/04/26 15:39:13;;;;;;;42.88;16.85;;;;;;;28.53;53.50;97925.75;4851919;29;20117;-66
2022/04/26 15:41:56;;;;;;;34.90;14.30;;;;;;;28.49;52.70;97925.28;4850185;29;20050;-65
2022/04/26 15:44:45;;;;;;;55.53;16.45;;;;;;;28.51;55.26;97927.75;4849474;29;20053;-66
2022/04/26 15:47:27;;;;;;;46.47;14.95;;;;;;;28.43;53.02;97936.56;4851034;29;20085;-67
2022/04/26 15:50:16;;;;;;;41.92;14.48;;;;;;;28.43;54.62;97933.94;4848070;29;20088;-65
2022/04/26 15:52:58;;;;;;;40.25;17.38;;;;;;;28.41;53.45;97937.78;4851205;29;20079;-66
2022/04/26 15:55:49;;;;;;;41.63;15.82;;;;;;;28.39;54.62;97942.41;4849445;29;20050;-67
2022/04/26 15:58:31;;;;;;;43.47;16.10;;;;;;;28.33;54.40;97936.00;4850958;29;20073;-66
2022/04/26 16:01:19;;;;;;;41.85;15.70;;;;;;;28.26;54.02;97935.03;4849343;29;20069;-65
2022/04/26 16:04:02;;;;;;;45.00;15.95;;;;;;;28.23;53.04;97940.72;4851197;29;20049;-68
2022/04/26 16:06:51;;;;;;;41.50;15.82;;;;;;;28.23;53.13;97932.75;4851950;29;20399;-68
2022/04/26 16:21:55;;;;;;;32.13;14.70;;;;;;;28.13;49.32;97953.31;4849619;29;20711;-66
2022/04/26 16:24:51;;;;;;;36.50;15.48;;;;;;;28.17;54.04;97947.53;4851781;29;20059;-66
2022/04/26 16:27:27;;;;;;;29.95;15.07;;;;;;;28.16;53.87;97945.88;4849664;29;20057;-65
2022/04/26 16:30:16;;;;;;;41.33;16.10;;;;;;;28.18;54.34;97951.00;4851173;29;20046;-64
2022/04/26 16:33:07;;;;;;;40.60;15.85;;;;;;;28.09;52.14;97949.38;4850255;29;20133;-66
2022/04/26 16:35:49;;;;;;;49.60;18.33;;;;;;;28.10;55.72;97951.00;4849635;29;20053;-66
2022/04/26 16:42:44;;;;;;;49.15;20.00;;;;;;;28.11;55.90;97953.47;4945501;23;20111;-66
2022/04/26 16:45:33;;;;;;;44.80;17.73;;;;;;;28.08;54.49;97951.19;4831596;29;20141;-66
2022/04/26 16:48:22;;;;;;;51.95;19.58;;;;;;;28.07;54.11;97952.19;4836444;29;20068;-65
2022/04/26 16:51:11;;;;;;;53.45;21.55;;;;;;;28.04;51.69;97962.31;4835269;29;20077;-64
2022/04/26 16:54:00;;;;;;;59.85;21.65;;;;;;;28.05;53.14;97962.13;4837748;29;20118;-64
2022/04/26 16:56:42;;;;;;;56.08;20.85;;;;;;;27.99;53.64;97960.19;4836109;29;20620;-64
2022/04/26 16:59:31;;;;;;;55.45;21.40;;;;;;;27.97;52.80;97961.34;4823101;29;20565;-63
2022/04/26 17:02:14;;;;;;;59.42;24.25;;;;;;;27.95;53.34;97958.03;4837294;29;20066;-63
2022/04/26 17:05:03;;;;;;;56.60;23.65;;;;;;;27.93;53.81;97954.75;4818937;29;20746;-63
2022/04/26 17:07:46;;;;;;;49.22;21.58;;;;;;;27.89;52.83;97950.78;4834811;29;20060;-63
2022/04/26 17:10:35;;;;;;;62.03;22.40;;;;;;;27.87;53.83;97955.44;4836205;29;20062;-63
2022/04/26 17:13:24;;;;;;;57.22;21.45;;;;;;;27.87;53.86;97955.44;4834079;29;20060;-63
2022/04/26 17:16:13;;;;;;;58.63;21.88;;;;;;;27.85;54.20;97963.56;4836130;29;20085;-64
2022/04/26 17:18:55;;;;;;;82.43;23.15;;;;;;;27.85;53.87;97955.63;4500354;29;9999715;-63
2022/04/26 17:21:46;;;;;;;69.28;22.55;;;;;;;27.82;54.65;97960.44;4831299;29;20506;-64
2022/04/26 17:27:35;;;;;;;66.97;21.55;;;;;;;27.76;54.86;97954.00;4835956;29;20053;-64
2022/04/26 17:30:24;;;;;;;55.25;20.48;;;;;;;27.72;55.74;97950.03;4834620;29;20134;-62
2022/04/26 17:33:06;;;;;;;66.28;21.73;;;;;;;27.65;53.43;97949.91;4819117;29;20076;-63
2022/04/26 17:36:01;;;;;;;57.25;22.55;;;;;;;27.64;52.54;97952.72;4838437;29;20073;-63
2022/04/26 17:38:37;;;;;;;54.88;20.75;;;;;;;27.66;56.55;97954.22;4834354;29;20052;-63
2022/04/26 17:41:26;;;;;;;60.85;21.38;;;;;;;27.58;55.88;97948.13;4834193;29;20106;-64